createdAt,value
2022-09-07T00:01:02.788Z,8.52
2022-09-07T00:03:29.926Z,8.35
2022-09-07T00:05:56.809Z,9.48
2022-09-07T00:08:26.813Z,9.68
2022-09-07T00:10:59.014Z,10.05
2022-09-07T00:13:28.054Z,9.90
2022-09-07T00:15:55.161Z,10.35
2022-09-07T00:18:22.143Z,8.20
2022-09-07T00:21:01.959Z,12.25
2022-09-07T00:23:30.362Z,11.48
2022-09-07T00:26:01.700Z,8.38
2022-09-07T00:28:29.407Z,9.13
2022-09-07T00:30:56.234Z,9.45
2022-09-07T00:33:23.219Z,9.18
2022-09-07T00:35:50.701Z,8.90
2022-09-07T00:38:17.721Z,9.90
2022-09-07T00:40:44.417Z,8.85
2022-09-07T00:43:18.145Z,8.68
2022-09-07T00:45:44.799Z,7.22
2022-09-07T00:48:16.882Z,9.50
2022-09-07T00:50:55.487Z,9.30
2022-09-07T00:53:30.420Z,9.25
2022-09-07T00:55:59.622Z,8.05
2022-09-07T00:58:27.097Z,9.75
2022-09-07T01:00:55.171Z,7.75
2022-09-07T01:03:30.889Z,7.85
2022-09-07T01:06:00.687Z,8.63
2022-09-07T01:08:28.676Z,7.25
2022-09-07T01:10:57.674Z,7.55
2022-09-07T01:13:24.467Z,8.57
2022-09-07T01:16:16.449Z,6.68
2022-09-07T01:19:01.636Z,6.85
2022-09-07T01:22:05.977Z,10.70
2022-09-07T01:27:43.953Z,7.43
2022-09-07T01:30:18.741Z,7.53
2022-09-07T01:33:21.296Z,9.18
2022-09-07T01:36:01.689Z,9.75
2022-09-07T01:38:40.960Z,6.30
2022-09-07T01:41:11.397Z,7.97
2022-09-07T01:43:59.597Z,7.15
2022-09-07T01:46:43.618Z,8.20
2022-09-07T01:49:17.591Z,6.05
2022-09-07T01:51:48.403Z,7.18
2022-09-07T01:54:44.590Z,5.53
2022-09-07T01:57:19.036Z,6.50
2022-09-07T01:59:53.078Z,7.65
2022-09-07T02:02:30.956Z,7.80
2022-09-07T02:05:12.216Z,5.72
2022-09-07T02:08:07.970Z,5.15
2022-09-07T02:10:45.183Z,6.03
2022-09-07T02:13:21.715Z,8.70
2022-09-07T02:15:54.755Z,7.65
2022-09-07T02:18:22.809Z,6.80
2022-09-07T02:20:53.415Z,7.15
2022-09-07T02:23:28.094Z,4.47
2022-09-07T02:26:02.471Z,7.03
2022-09-07T02:28:35.403Z,5.63
2022-09-07T02:31:02.944Z,7.35
2022-09-07T02:33:30.054Z,7.70
2022-09-07T02:35:57.676Z,6.28
2022-09-07T02:38:24.966Z,7.50
2022-09-07T02:40:56.833Z,7.05
2022-09-07T02:43:25.344Z,6.90
2022-09-07T02:46:28.422Z,6.13
2022-09-07T02:49:01.340Z,5.93
2022-09-07T02:51:47.409Z,5.70
2022-09-07T02:54:24.247Z,6.47
2022-09-07T02:57:08.638Z,6.88
2022-09-07T03:00:00.026Z,7.63
2022-09-07T03:02:36.453Z,6.45
2022-09-07T03:05:13.177Z,6.55
2022-09-07T03:07:47.618Z,5.53
2022-09-07T03:10:15.789Z,5.55
2022-09-07T03:12:45.574Z,5.40
2022-09-07T03:15:24.956Z,5.60
2022-09-07T03:17:51.802Z,6.90
2022-09-07T03:20:19.144Z,5.43
2022-09-07T03:22:47.222Z,6.60
2022-09-07T03:25:14.425Z,7.75
2022-09-07T03:27:41.410Z,7.00
2022-09-07T03:30:09.997Z,6.15
2022-09-07T03:32:38.442Z,7.53
2022-09-07T03:35:06.880Z,6.32
2022-09-07T03:37:36.491Z,7.30
2022-09-07T03:40:05.463Z,7.95
2022-09-07T03:42:32.126Z,8.00
2022-09-07T03:44:58.876Z,7.20
2022-09-07T03:47:25.529Z,9.10
2022-09-07T03:49:52.319Z,8.73
2022-09-07T03:52:19.024Z,7.35
2022-09-07T03:54:46.270Z,7.53
2022-09-07T03:57:13.231Z,8.35
2022-09-07T03:59:39.860Z,8.57
2022-09-07T04:02:06.688Z,8.75
2022-09-07T04:04:33.716Z,8.05
2022-09-07T04:07:00.349Z,7.30
2022-09-07T04:09:26.996Z,9.00
2022-09-07T04:11:53.658Z,6.25
2022-09-07T04:14:20.508Z,6.30
2022-09-07T04:16:47.760Z,6.15
2022-09-07T04:19:14.781Z,7.28
2022-09-07T04:21:43.141Z,6.78
2022-09-07T04:24:09.886Z,6.85
2022-09-07T04:26:37.152Z,6.88
2022-09-07T04:29:04.492Z,7.55
2022-09-07T04:31:34.143Z,9.23
2022-09-07T04:34:01.202Z,8.55
2022-09-07T04:36:28.578Z,6.20
2022-09-07T04:38:57.403Z,9.35
2022-09-07T04:41:24.350Z,7.80
2022-09-07T04:43:54.819Z,8.15
2022-09-07T04:46:22.960Z,8.02
2022-09-07T04:48:51.725Z,7.72
2022-09-07T04:51:19.310Z,7.32
2022-09-07T04:53:51.525Z,8.02
2022-09-07T04:56:19.864Z,8.30
2022-09-07T04:58:47.397Z,8.77
2022-09-07T05:01:17.962Z,9.38
2022-09-07T05:03:45.144Z,10.73
2022-09-07T05:06:14.063Z,9.57
2022-09-07T05:08:46.678Z,8.20
2022-09-07T05:11:14.855Z,9.60
2022-09-07T05:13:41.927Z,9.15
2022-09-07T05:16:20.355Z,8.55
2022-09-07T05:18:51.831Z,7.78
2022-09-07T05:21:24.399Z,8.27
2022-09-07T05:23:53.699Z,8.63
2022-09-07T05:26:22.500Z,7.35
2022-09-07T05:28:50.411Z,10.85
2022-09-07T05:31:20.002Z,7.82
2022-09-07T05:36:42.060Z,9.13
2022-09-07T05:39:09.439Z,8.63
2022-09-07T05:41:36.454Z,8.35
2022-09-07T05:46:52.240Z,8.50
2022-09-07T05:49:18.907Z,8.57
2022-09-07T05:51:45.549Z,7.10
2022-09-07T05:54:12.227Z,9.90
2022-09-07T05:56:39.001Z,7.15
2022-09-07T05:59:05.692Z,9.23
2022-09-07T06:01:32.701Z,10.70
2022-09-07T06:04:00.190Z,10.18
2022-09-07T06:06:27.071Z,9.27
2022-09-07T06:08:54.378Z,12.27
2022-09-07T06:11:23.369Z,9.27
2022-09-07T06:13:50.569Z,12.25
2022-09-07T06:16:18.557Z,9.20
2022-09-07T06:18:46.953Z,11.60
2022-09-07T06:21:14.826Z,12.02
2022-09-07T06:23:43.492Z,11.45
2022-09-07T06:26:11.328Z,9.43
2022-09-07T06:28:40.692Z,11.57
2022-09-07T06:31:13.233Z,11.38
2022-09-07T06:33:41.502Z,9.68
2022-09-07T06:36:12.611Z,10.52
2022-09-07T06:38:39.915Z,10.82
2022-09-07T06:43:57.694Z,11.18
2022-09-07T06:49:11.324Z,12.60
2022-09-07T06:51:38.789Z,11.02
2022-09-07T06:56:52.480Z,13.05
2022-09-07T06:59:19.255Z,14.70
2022-09-07T07:01:45.885Z,14.23
2022-09-07T07:04:13.203Z,16.02
2022-09-07T07:06:40.315Z,14.77
2022-09-07T07:09:08.621Z,16.25
2022-09-07T07:11:37.104Z,16.45
2022-09-07T07:14:03.869Z,14.43
2022-09-07T07:16:30.762Z,15.15
2022-09-07T07:18:57.691Z,19.80
2022-09-07T07:21:24.518Z,15.15
2022-09-07T07:23:53.013Z,16.40
2022-09-07T07:26:23.644Z,18.27
2022-09-07T07:29:07.076Z,16.23
2022-09-07T07:31:34.945Z,15.35
2022-09-07T07:34:20.967Z,17.88
2022-09-07T07:37:06.172Z,19.25
2022-09-07T07:42:21.026Z,19.67
2022-09-07T07:44:48.004Z,15.20
2022-09-07T07:47:14.605Z,17.77
2022-09-07T07:49:41.197Z,16.08
2022-09-07T07:54:54.348Z,20.27
2022-09-07T07:57:21.009Z,18.63
2022-09-07T07:59:47.611Z,18.42
2022-09-07T08:02:16.311Z,19.38
2022-09-07T08:04:43.391Z,20.35
2022-09-07T08:07:11.898Z,18.15
2022-09-07T08:09:44.114Z,20.75
2022-09-07T08:12:16.033Z,17.35
2022-09-07T08:14:42.918Z,18.23
2022-09-07T08:17:11.767Z,19.15
2022-09-07T08:19:39.083Z,21.08
2022-09-07T08:22:06.573Z,18.85
2022-09-07T08:24:33.406Z,20.20
2022-09-07T08:27:00.168Z,20.52
2022-09-07T08:29:27.179Z,19.58
2022-09-07T08:31:54.141Z,17.33
2022-09-07T08:34:21.813Z,20.13
2022-09-07T08:36:48.639Z,19.13
2022-09-07T08:39:15.309Z,20.83
2022-09-07T08:41:48.751Z,20.48
2022-09-07T08:44:18.320Z,17.80
2022-09-07T08:46:56.690Z,19.73
2022-09-07T08:49:47.210Z,18.02
2022-09-07T08:52:15.602Z,19.27
2022-09-07T08:54:45.390Z,19.02
2022-09-07T08:57:20.830Z,20.33
2022-09-07T09:00:08.653Z,18.77
2022-09-07T09:02:42.481Z,19.40
2022-09-07T09:05:40.012Z,18.17
2022-09-07T09:08:29.012Z,17.05
2022-09-07T09:11:03.639Z,19.30
2022-09-07T09:13:52.204Z,17.38
2022-09-07T09:16:45.724Z,19.58
2022-09-07T09:19:49.542Z,18.30
2022-09-07T09:22:22.698Z,17.65
2022-09-07T09:25:20.190Z,15.95
2022-09-07T09:27:48.331Z,17.60
2022-09-07T09:30:21.265Z,15.90
2022-09-07T09:32:50.599Z,17.38
2022-09-07T09:35:32.484Z,15.55
2022-09-07T09:37:59.117Z,16.00
2022-09-07T09:40:36.157Z,15.32
2022-09-07T09:43:07.146Z,15.23
2022-09-07T09:48:31.445Z,16.42
2022-09-07T09:54:06.037Z,13.88
2022-09-07T09:56:41.226Z,15.15
2022-09-07T10:05:26.216Z,14.70
2022-09-07T10:07:53.666Z,15.55
2022-09-07T10:10:20.856Z,15.82
2022-09-07T10:12:47.539Z,12.68
2022-09-07T10:15:33.640Z,13.25
2022-09-07T10:18:09.528Z,12.35
2022-09-07T10:20:38.354Z,12.70
2022-09-07T10:23:18.011Z,11.77
2022-09-07T10:25:44.690Z,12.27
2022-09-07T10:28:14.335Z,9.75
2022-09-07T10:31:18.408Z,10.43
2022-09-07T10:36:53.067Z,10.77
2022-09-07T10:39:26.127Z,8.85
2022-09-07T10:42:09.855Z,9.85
2022-09-07T10:44:42.928Z,6.97
2022-09-07T10:47:27.469Z,7.78
2022-09-07T10:53:40.308Z,9.35
2022-09-07T10:56:37.954Z,7.78
2022-09-07T10:59:21.751Z,9.93
2022-09-07T11:02:00.307Z,8.90
2022-09-07T11:04:33.647Z,8.75
2022-09-07T11:07:15.611Z,8.98
2022-09-07T11:10:25.281Z,6.47
2022-09-07T11:12:56.160Z,7.80
2022-09-07T11:15:29.281Z,9.43
2022-09-07T11:18:03.239Z,7.10
2022-09-07T11:20:35.535Z,9.35
2022-09-07T11:23:25.579Z,8.40
2022-09-07T11:26:21.560Z,7.15
2022-09-07T11:32:11.954Z,8.82
2022-09-07T11:34:46.703Z,5.68
2022-09-07T11:37:38.135Z,7.10
2022-09-07T11:43:02.908Z,9.48
2022-09-07T11:45:56.533Z,7.85
2022-09-07T11:48:46.950Z,6.43
2022-09-07T11:51:20.531Z,10.07
2022-09-07T11:53:53.350Z,10.43
2022-09-07T11:56:37.659Z,8.85
2022-09-07T11:59:23.758Z,7.03
2022-09-07T12:02:36.725Z,8.82
2022-09-07T12:05:28.155Z,7.22
2022-09-07T12:08:14.506Z,9.40
2022-09-07T12:11:08.492Z,7.03
2022-09-07T12:13:59.976Z,8.02
2022-09-07T12:16:29.702Z,8.07
2022-09-07T12:19:21.360Z,7.80
2022-09-07T12:21:54.615Z,7.10
2022-09-07T12:24:36.969Z,9.38
2022-09-07T12:27:10.191Z,6.03
2022-09-07T12:29:37.319Z,6.63
2022-09-07T12:32:53.431Z,9.90
2022-09-07T12:34:54.679Z,6.10
2022-09-07T12:37:27.027Z,10.07
2022-09-07T12:40:28.135Z,7.38
2022-09-07T12:43:12.995Z,6.18
2022-09-07T12:45:39.580Z,7.57
2022-09-07T12:48:06.163Z,7.32
2022-09-07T12:50:42.835Z,9.55
2022-09-07T12:53:58.023Z,7.60
2022-09-07T12:57:28.957Z,8.30
2022-09-07T13:00:14.023Z,6.43
2022-09-07T13:03:03.867Z,9.20
2022-09-07T13:05:54.027Z,7.63
2022-09-07T13:08:57.430Z,9.23
2022-09-07T13:11:42.464Z,8.70
2022-09-07T13:14:16.026Z,7.70
2022-09-07T13:20:06.898Z,7.32
2022-09-07T13:22:33.451Z,4.95
2022-09-07T13:25:20.640Z,6.93
2022-09-07T13:28:26.964Z,6.20
2022-09-07T13:31:07.248Z,7.43
2022-09-07T13:33:44.676Z,6.20
2022-09-07T13:36:37.545Z,8.35
2022-09-07T13:39:09.511Z,5.07
2022-09-07T13:41:42.161Z,6.72
2022-09-07T13:44:26.170Z,7.22
2022-09-07T13:47:12.392Z,6.10
2022-09-07T13:50:06.063Z,6.93
2022-09-07T13:52:51.249Z,5.70
2022-09-07T13:55:25.950Z,8.27
2022-09-07T13:58:22.091Z,4.63
2022-09-07T14:00:55.996Z,4.78
2022-09-07T14:03:25.311Z,6.18
2022-09-07T14:06:26.081Z,5.03
2022-09-07T14:08:56.452Z,6.55
2022-09-07T14:11:41.694Z,8.27
2022-09-07T14:14:16.195Z,6.65
2022-09-07T14:16:49.180Z,3.92
2022-09-07T14:19:24.090Z,6.60
2022-09-07T14:22:02.912Z,5.93
2022-09-07T14:24:33.359Z,5.00
2022-09-07T14:27:00.704Z,4.55
2022-09-07T14:29:31.061Z,5.90
2022-09-07T14:31:59.927Z,5.43
2022-09-07T14:34:32.518Z,4.05
2022-09-07T14:37:03.615Z,5.82
2022-09-07T14:39:34.026Z,4.40
2022-09-07T14:42:03.235Z,5.03
2022-09-07T14:44:42.838Z,3.47
2022-09-07T14:47:18.922Z,4.32
2022-09-07T14:49:52.472Z,4.47
2022-09-07T14:52:24.730Z,4.57
2022-09-07T14:54:52.725Z,6.30
2022-09-07T14:57:19.294Z,3.97
2022-09-07T14:59:48.019Z,6.43
2022-09-07T15:02:29.779Z,4.05
2022-09-07T15:05:14.963Z,3.78
2022-09-07T15:07:49.715Z,5.18
2022-09-07T15:10:28.131Z,7.90
2022-09-07T15:12:57.000Z,6.00
2022-09-07T15:15:31.779Z,7.72
2022-09-07T15:18:08.822Z,6.53
2022-09-07T15:20:43.950Z,6.80
2022-09-07T15:23:19.347Z,5.05
2022-09-07T15:25:51.885Z,4.95
2022-09-07T15:34:13.094Z,4.32
2022-09-07T15:36:42.636Z,7.07
2022-09-07T15:39:25.015Z,6.03
2022-09-07T15:41:52.163Z,6.80
2022-09-07T15:44:24.376Z,4.60
2022-09-07T15:49:45.780Z,6.00
2022-09-07T15:52:16.223Z,7.55
2022-09-07T15:54:43.484Z,4.35
2022-09-07T15:59:57.144Z,8.43
2022-09-07T16:05:10.821Z,5.05
2022-09-07T16:10:25.510Z,3.47
2022-09-07T16:15:45.266Z,8.38
2022-09-07T16:18:16.417Z,5.68
2022-09-07T16:20:43.874Z,5.05
2022-09-07T16:23:14.323Z,6.47
2022-09-07T16:25:43.076Z,6.45
2022-09-07T16:28:09.950Z,4.53
2022-09-07T16:30:40.340Z,6.55
2022-09-07T16:33:07.142Z,3.75
2022-09-07T16:35:33.851Z,6.82
2022-09-07T16:40:47.151Z,4.13
2022-09-07T16:43:13.773Z,4.22
2022-09-07T16:48:26.965Z,5.90
2022-09-07T16:51:00.326Z,4.72
2022-09-07T16:53:29.748Z,7.55
2022-09-07T16:56:08.245Z,5.03
2022-09-07T16:58:38.367Z,6.32
2022-09-07T17:01:11.311Z,6.40
2022-09-07T17:03:38.858Z,5.53
2022-09-07T17:06:08.121Z,8.45
2022-09-07T17:08:35.927Z,7.45
2022-09-07T17:11:08.369Z,5.70
2022-09-07T17:16:03.997Z,6.30
2022-09-07T17:21:19.849Z,6.28
2022-09-07T17:23:54.275Z,7.20
2022-09-07T17:26:22.419Z,5.72
2022-09-07T17:28:50.411Z,3.67
2022-09-07T17:34:13.687Z,5.95
2022-09-07T17:36:40.523Z,3.92
2022-09-07T17:39:16.749Z,6.00
2022-09-07T17:41:45.547Z,4.00
2022-09-07T17:44:12.290Z,4.28
2022-09-07T17:46:39.295Z,5.88
2022-09-07T17:49:07.923Z,6.75
2022-09-07T17:51:35.865Z,4.72
2022-09-07T17:54:09.460Z,7.07
2022-09-07T17:56:36.982Z,5.15
2022-09-07T18:01:50.703Z,6.32
2022-09-07T18:04:17.590Z,6.22
2022-09-07T18:06:44.306Z,5.43
2022-09-07T18:09:11.754Z,5.90
2022-09-07T18:11:47.325Z,6.78
2022-09-07T18:14:15.452Z,8.65
2022-09-07T18:16:43.817Z,4.72
2022-09-07T18:19:11.718Z,7.53
2022-09-07T18:21:40.930Z,7.85
2022-09-07T18:24:18.752Z,8.20
2022-09-07T18:26:50.946Z,10.05
2022-09-07T18:29:33.438Z,8.30
2022-09-07T18:32:04.439Z,8.63
2022-09-07T18:34:32.105Z,6.18
2022-09-07T18:36:59.586Z,5.78
2022-09-07T18:39:27.046Z,6.20
2022-09-07T18:41:54.480Z,6.97
2022-09-07T18:47:08.589Z,5.55
2022-09-07T18:49:35.561Z,6.20
2022-09-07T18:54:50.539Z,8.00
2022-09-07T18:57:17.247Z,7.60
2022-09-07T18:59:43.980Z,7.38
2022-09-07T19:02:10.719Z,8.15
2022-09-07T19:07:29.549Z,8.45
2022-09-07T19:10:09.692Z,7.40
2022-09-07T19:12:39.849Z,7.93
2022-09-07T19:15:26.071Z,8.75
2022-09-07T19:17:57.874Z,8.02
2022-09-07T19:20:27.146Z,7.13
2022-09-07T19:22:53.778Z,10.65
2022-09-07T19:25:27.574Z,15.57
2022-09-07T19:27:55.642Z,9.70
2022-09-07T19:30:23.620Z,9.70
2022-09-07T19:32:51.062Z,7.72
2022-09-07T19:35:18.438Z,8.77
2022-09-07T19:37:45.973Z,6.68
2022-09-07T19:40:18.598Z,11.38
2022-09-07T19:42:45.924Z,9.60
2022-09-07T19:45:12.578Z,9.23
2022-09-07T19:47:39.262Z,7.25
2022-09-07T19:50:06.286Z,6.72
2022-09-07T19:52:32.975Z,7.93
2022-09-07T19:55:03.301Z,7.18
2022-09-07T19:57:30.041Z,7.72
2022-09-07T19:59:57.306Z,8.60
2022-09-07T20:02:23.928Z,10.07
2022-09-07T20:04:50.598Z,7.25
2022-09-07T20:07:17.259Z,8.85
2022-09-07T20:09:43.890Z,7.63
2022-09-07T20:12:10.520Z,10.85
2022-09-07T20:14:37.299Z,7.93
2022-09-07T20:17:04.107Z,9.13
2022-09-07T20:19:30.774Z,8.40
2022-09-07T20:21:57.418Z,7.65
2022-09-07T20:24:24.692Z,7.00
2022-09-07T20:26:51.460Z,11.38
2022-09-07T20:29:33.536Z,9.38
2022-09-07T20:32:01.120Z,11.23
2022-09-07T20:34:28.621Z,10.57
2022-09-07T20:36:56.510Z,10.90
2022-09-07T20:39:23.965Z,8.45
2022-09-07T20:41:50.820Z,9.40
2022-09-07T20:44:17.472Z,9.25
2022-09-07T20:46:44.322Z,6.80
2022-09-07T20:49:11.183Z,9.55
2022-09-07T20:51:38.650Z,9.70
2022-09-07T20:54:05.684Z,7.72
2022-09-07T20:56:32.392Z,9.02
2022-09-07T20:59:00.530Z,9.05
2022-09-07T21:01:29.078Z,9.30
2022-09-07T21:03:57.876Z,9.55
2022-09-07T21:06:25.864Z,6.95
2022-09-07T21:08:53.306Z,9.55
2022-09-07T21:11:21.179Z,7.05
2022-09-07T21:13:53.846Z,8.05
2022-09-07T21:18:47.086Z,7.75
2022-09-07T21:21:21.036Z,9.40
2022-09-07T21:23:48.148Z,7.30
2022-09-07T21:26:19.567Z,6.93
2022-09-07T21:28:46.174Z,11.25
2022-09-07T21:31:12.811Z,7.03
2022-09-07T21:33:39.464Z,9.30
2022-09-07T21:36:11.195Z,7.30
2022-09-07T21:38:39.554Z,7.78
2022-09-07T21:41:12.171Z,6.82
2022-09-07T21:46:13.464Z,6.80
2022-09-07T21:48:40.510Z,8.10
2022-09-07T21:51:07.793Z,7.35
2022-09-07T21:53:35.047Z,9.07
2022-09-07T21:56:08.433Z,8.15
2022-09-07T21:58:35.767Z,8.75
2022-09-07T22:01:11.869Z,7.88
2022-09-07T22:03:40.249Z,10.30
2022-09-07T22:06:07.832Z,10.57
2022-09-07T22:08:36.159Z,8.85
2022-09-07T22:11:04.795Z,8.23
2022-09-07T22:13:31.566Z,8.60
2022-09-07T22:15:58.543Z,7.43
2022-09-07T22:18:25.204Z,9.05
2022-09-07T22:21:05.412Z,8.98
2022-09-07T22:23:33.614Z,7.80
2022-09-07T22:26:00.579Z,8.27
2022-09-07T22:28:29.826Z,9.25
2022-09-07T22:31:07.069Z,9.02
2022-09-07T22:33:33.780Z,8.30
2022-09-07T22:36:11.282Z,11.55
2022-09-07T22:38:38.613Z,6.43
2022-09-07T22:41:10.409Z,9.10
2022-09-07T22:43:37.391Z,7.55
2022-09-07T22:46:05.013Z,6.72
2022-09-07T22:48:32.099Z,9.18
2022-09-07T22:51:00.098Z,8.27
2022-09-07T22:53:27.903Z,8.25
2022-09-07T22:55:55.696Z,8.48
2022-09-07T22:58:28.867Z,8.02
2022-09-07T23:01:01.055Z,10.80
2022-09-07T23:03:28.985Z,8.77
2022-09-07T23:05:56.741Z,10.77
2022-09-07T23:08:24.900Z,9.82
2022-09-07T23:10:51.800Z,15.15
2022-09-07T23:13:19.076Z,12.10
2022-09-07T23:15:46.994Z,9.40
2022-09-07T23:18:18.946Z,12.40
2022-09-07T23:20:46.484Z,13.30
2022-09-07T23:23:13.376Z,14.68
2022-09-07T23:25:41.813Z,13.60
2022-09-07T23:28:12.178Z,17.08
2022-09-07T23:30:40.502Z,16.73
2022-09-07T23:33:07.391Z,13.93
2022-09-07T23:35:34.006Z,14.02
2022-09-07T23:38:00.616Z,12.93
2022-09-07T23:40:30.181Z,15.43
2022-09-07T23:42:56.842Z,12.82
2022-09-07T23:45:23.636Z,13.52
2022-09-07T23:47:50.351Z,12.80
2022-09-07T23:50:17.064Z,11.85
2022-09-07T23:52:43.768Z,14.18
2022-09-07T23:55:10.971Z,12.15
2022-09-07T23:57:38.890Z,12.07
